Choctaw — WDF4875 — position and weather

sailwx.info

Track history (hours):
 
Tides and Currents Weather Stations Pressure Air Temp Water Temp Dewpoint Dewpoint Depression Visibility Wind Speed Wind Dir Waves Ship Positions

Choctaw

Owner: Canal Barge Company, Inc., Belle Chasse, LA. More information available from US FCC via Universal Licensing System and Coast Guard Vessel Documentation Center.

Last reported at 2017-Oct-18 01:30 UTC. Time now 2017-Oct-18 01:57 UTC.
Position N 30°04' W 093°34'.

Length 25 m.

Type: Towing. MMSI: 367456760.

Date/timePositionNaut miles runAvg speedWind from/ knotsBaromVisibWave heightAir tempDewpointWater temp
2017-Oct-18 01:30N 30°04' W 093°34'2 4.8
2017-Oct-18 01:00N 30°04' W 093°31'2 4.8
2017-Oct-18 00:30N 30°04' W 093°28'2 4.7
2017-Oct-18 00:00N 30°04' W 093°26'2 4.9
2017-Oct-17 23:30N 30°04' W 093°23'2 3.9
2017-Oct-17 23:00N 30°04' W 093°21'1 2.5
2017-Oct-17 22:28N 30°05' W 093°20'2 3.6
2017-Oct-17 22:01N 30°05' W 093°18'1 1.6
2017-Oct-17 21:30N 30°05' W 093°17'1 1.7
2017-Oct-17 21:00N 30°04' W 093°16'0 0.2
2017-Oct-17 20:30N 30°04' W 093°16'0 0.7
2017-Oct-17 20:00N 30°04' W 093°16'0 0.7
2017-Oct-17 19:30N 30°04' W 093°16'2 3.8
2017-Oct-17 19:00N 30°02' W 093°15'2 4.2
2017-Oct-17 18:30N 30°00' W 093°14'2 4.7
2017-Oct-17 18:00N 29°58' W 093°12'2 4.8
2017-Oct-17 17:30N 29°57' W 093°10'2 4.5
2017-Oct-17 17:00N 29°56' W 093°07'2 4.8
2017-Oct-17 16:30N 29°56' W 093°05'38 4.1
2017-Oct-17 07:16N 29°51' W 092°21'1 4.1
2017-Oct-17 06:57N 29°50' W 092°19'2 3.7
2017-Oct-17 06:29N 29°50' W 092°18'2 4.0
2017-Oct-17 06:00N 29°49' W 092°16'2 4.2
2017-Oct-17 05:31N 29°48' W 092°14'2 3.7
2017-Oct-17 05:00N 29°47' W 092°12'2 3.8
2017-Oct-17 04:30N 29°47' W 092°10'2 4.4
2017-Oct-17 04:00N 29°47' W 092°07'2 4.2
2017-Oct-17 03:30N 29°48' W 092°05'59 4.1
2017-Oct-16 13:03N 29°36' W 090°58'0 5.0
2017-Oct-16 12:59N 29°36' W 090°58'4 5.0
2017-Oct-16 12:13N 29°33' W 090°55'2 5.3
2017-Oct-16 11:54N 29°32' W 090°53'2 5.1
2017-Oct-16 11:30N 29°32' W 090°51'3 5.3
2017-Oct-16 11:00N 29°32' W 090°48'2 4.4
2017-Oct-16 10:30N 29°33' W 090°45'2 4.2
2017-Oct-16 10:00N 29°34' W 090°43'2 4.5
2017-Oct-16 09:30N 29°36' W 090°43'1 2.3
2017-Oct-16 08:59N 29°36' W 090°41'1 1.2
2017-Oct-16 08:29N 29°36' W 090°41'1 1.3
2017-Oct-16 07:59N 29°36' W 090°40'1 1.2
2017-Oct-16 07:29N 29°36' W 090°39'1 2.3
2017-Oct-16 06:58N 29°35' W 090°38'1 2.0
2017-Oct-16 06:31N 29°35' W 090°37'2 3.9
2017-Oct-16 06:00N 29°35' W 090°35'10 4.7
2017-Oct-16 03:56N 29°33' W 090°24'2 4.1
2017-Oct-16 03:31N 29°35' W 090°23'  
Track history (hours):
 
Tides and Currents Weather Stations Pressure Air Temp Water Temp Dewpoint Dewpoint Depression Visibility Wind Speed Wind Dir Waves Ship Positions

Choctaw

Owner: Canal Barge Company, Inc., Belle Chasse, LA. More information available from US FCC via Universal Licensing System and Coast Guard Vessel Documentation Center.

Last reported at 2017-Oct-18 01:30 UTC. Time now 2017-Oct-18 01:57 UTC.
Position N 30°04' W 093°34'.

Length 25 m.

Type: Towing. MMSI: 367456760.

Date/timePositionNaut miles runAvg speedWind from/ knotsBaromVisibWave heightAir tempDewpointWater temp
2017-Oct-18 01:30N 30°04' W 093°34'2 4.8
2017-Oct-18 01:00N 30°04' W 093°31'2 4.8
2017-Oct-18 00:30N 30°04' W 093°28'2 4.7
2017-Oct-18 00:00N 30°04' W 093°26'2 4.9
2017-Oct-17 23:30N 30°04' W 093°23'2 3.9
2017-Oct-17 23:00N 30°04' W 093°21'1 2.5
2017-Oct-17 22:28N 30°05' W 093°20'2 3.6
2017-Oct-17 22:01N 30°05' W 093°18'1 1.6
2017-Oct-17 21:30N 30°05' W 093°17'1 1.7
2017-Oct-17 21:00N 30°04' W 093°16'0 0.2
2017-Oct-17 20:30N 30°04' W 093°16'0 0.7
2017-Oct-17 20:00N 30°04' W 093°16'0 0.7
2017-Oct-17 19:30N 30°04' W 093°16'2 3.8
2017-Oct-17 19:00N 30°02' W 093°15'2 4.2
2017-Oct-17 18:30N 30°00' W 093°14'2 4.7
2017-Oct-17 18:00N 29°58' W 093°12'2 4.8
2017-Oct-17 17:30N 29°57' W 093°10'2 4.5
2017-Oct-17 17:00N 29°56' W 093°07'2 4.8
2017-Oct-17 16:30N 29°56' W 093°05'38 4.1
2017-Oct-17 07:16N 29°51' W 092°21'1 4.1
2017-Oct-17 06:57N 29°50' W 092°19'2 3.7
2017-Oct-17 06:29N 29°50' W 092°18'2 4.0
2017-Oct-17 06:00N 29°49' W 092°16'2 4.2
2017-Oct-17 05:31N 29°48' W 092°14'2 3.7
2017-Oct-17 05:00N 29°47' W 092°12'2 3.8
2017-Oct-17 04:30N 29°47' W 092°10'2 4.4
2017-Oct-17 04:00N 29°47' W 092°07'2 4.2
2017-Oct-17 03:30N 29°48' W 092°05'59 4.1
2017-Oct-16 13:03N 29°36' W 090°58'0 5.0
2017-Oct-16 12:59N 29°36' W 090°58'4 5.0
2017-Oct-16 12:13N 29°33' W 090°55'2 5.3
2017-Oct-16 11:54N 29°32' W 090°53'2 5.1
2017-Oct-16 11:30N 29°32' W 090°51'3 5.3
2017-Oct-16 11:00N 29°32' W 090°48'2 4.4
2017-Oct-16 10:30N 29°33' W 090°45'2 4.2
2017-Oct-16 10:00N 29°34' W 090°43'2 4.5
2017-Oct-16 09:30N 29°36' W 090°43'1 2.3
2017-Oct-16 08:59N 29°36' W 090°41'1 1.2
2017-Oct-16 08:29N 29°36' W 090°41'1 1.3
2017-Oct-16 07:59N 29°36' W 090°40'1 1.2
2017-Oct-16 07:29N 29°36' W 090°39'1 2.3
2017-Oct-16 06:58N 29°35' W 090°38'1 2.0
2017-Oct-16 06:31N 29°35' W 090°37'2 3.9
2017-Oct-16 06:00N 29°35' W 090°35'10 4.7
2017-Oct-16 03:56N 29°33' W 090°24'2 4.1
2017-Oct-16 03:31N 29°35' W 090°23'  

Dump ship's entire track history